Time;durP1;ratioP1;P1;durP2;ratioP2;P2;SDS_P1;SDS_P2;PMS_P1;PMS_P2;Temp;Humidity;BMP_temperature;BMP_pressure;BME280_temperature;BME280_humidity;BME280_pressure;Samples;Min_cycle;Max_cycle;Signal;HPM_P1;HPM_P2
2021/11/04 00:01:39;;;;;;;19.08;17.38;;;7.70;99.90;;;;;;4954605;28;20062;-72
2021/11/04 00:04:05;;;;;;;19.13;17.20;;;7.70;99.90;;;;;;4954449;28;20042;-72
2021/11/04 00:06:31;;;;;;;18.55;16.85;;;7.70;99.90;;;;;;4954273;28;20051;-71
2021/11/04 00:08:57;;;;;;;20.48;18.65;;;7.70;99.90;;;;;;4953904;28;20485;-72
2021/11/04 00:11:25;;;;;;;17.02;15.77;;;7.70;99.90;;;;;;4954282;28;20050;-72
2021/11/04 00:13:51;;;;;;;19.30;17.48;;;7.70;99.90;;;;;;4954635;28;20456;-71
2021/11/04 00:16:17;;;;;;;18.65;17.30;;;7.70;99.90;;;;;;4966193;28;20039;-72
2021/11/04 00:18:44;;;;;;;18.88;17.13;;;7.70;99.90;;;;;;4953577;28;20042;-76
2021/11/04 00:21:10;;;;;;;17.52;16.02;;;7.60;99.90;;;;;;4956052;28;20066;-72
2021/11/04 00:23:36;;;;;;;18.10;16.38;;;7.60;99.90;;;;;;4972578;28;20031;-72
2021/11/04 00:26:03;;;;;;;18.77;16.92;;;7.60;99.90;;;;;;4966273;28;20186;-72
2021/11/04 00:28:32;;;;;;;19.02;17.35;;;7.60;99.90;;;;;;4954723;28;20373;-72
2021/11/04 00:30:58;;;;;;;17.73;16.13;;;7.60;99.90;;;;;;4954065;28;20050;-71
2021/11/04 00:33:24;;;;;;;18.83;17.13;;;7.60;99.90;;;;;;4954032;28;20420;-71
2021/11/04 00:35:51;;;;;;;20.50;18.48;;;7.50;99.90;;;;;;4952996;28;20111;-72
2021/11/04 00:38:17;;;;;;;21.98;18.38;;;7.50;99.90;;;;;;4954124;29;20039;-72
2021/11/04 00:40:43;;;;;;;20.42;18.40;;;7.50;99.90;;;;;;4953348;28;20031;-74
2021/11/04 00:43:09;;;;;;;17.60;15.93;;;7.50;99.90;;;;;;4955202;28;20031;-71
2021/11/04 00:45:36;;;;;;;17.98;16.02;;;7.40;99.90;;;;;;4967240;28;20046;-72
2021/11/04 00:48:03;;;;;;;20.50;16.83;;;7.50;99.90;;;;;;4953150;28;20027;-72
2021/11/04 00:50:29;;;;;;;17.80;16.05;;;7.40;99.90;;;;;;4953572;28;20031;-72
2021/11/04 00:52:55;;;;;;;18.60;16.75;;;7.40;99.90;;;;;;4953119;28;20040;-72
2021/11/04 00:55:22;;;;;;;21.00;19.00;;;7.50;99.90;;;;;;4953979;28;20043;-72
2021/11/04 00:57:49;;;;;;;17.80;16.17;;;7.50;99.90;;;;;;4953006;28;20496;-73
2021/11/04 01:00:16;;;;;;;21.25;19.23;;;7.50;99.90;;;;;;4952954;28;20043;-72
2021/11/04 01:02:43;;;;;;;18.98;17.38;;;7.50;99.90;;;;;;4959625;28;20039;-71
2021/11/04 01:05:10;;;;;;;21.80;17.38;;;7.50;99.90;;;;;;4953159;28;20028;-76
2021/11/04 01:07:36;;;;;;;21.13;19.13;;;7.40;99.90;;;;;;4953527;28;20036;-72
2021/11/04 01:10:04;;;;;;;13.60;12.15;;;7.50;99.90;;;;;;4953435;28;20042;-72
2021/11/04 01:12:30;;;;;;;15.50;14.35;;;7.40;99.90;;;;;;4953320;28;20043;-72
2021/11/04 01:14:56;;;;;;;16.98;15.50;;;7.50;99.90;;;;;;4953248;28;20086;-72
2021/11/04 01:17:23;;;;;;;16.02;14.77;;;7.50;99.90;;;;;;4953428;28;20496;-74
2021/11/04 01:19:49;;;;;;;18.02;16.17;;;7.50;99.90;;;;;;4971328;28;20384;-72
2021/11/04 01:22:16;;;;;;;19.92;16.48;;;7.50;99.90;;;;;;4955351;28;20465;-72
2021/11/04 01:24:42;;;;;;;15.73;14.25;;;7.50;99.90;;;;;;4953198;28;20039;-72
2021/11/04 01:27:09;;;;;;;11.35;10.05;;;7.60;99.90;;;;;;4955514;28;20058;-72
2021/11/04 01:29:35;;;;;;;8.18;7.43;;;7.50;99.90;;;;;;4956652;28;20036;-72
2021/11/04 01:32:01;;;;;;;7.82;7.03;;;7.60;99.90;;;;;;4959733;28;20047;-72
2021/11/04 01:34:27;;;;;;;7.13;6.35;;;7.60;99.90;;;;;;4956649;28;20139;-72
2021/11/04 01:36:54;;;;;;;6.78;6.18;;;7.60;99.90;;;;;;4968687;28;20035;-72
2021/11/04 01:39:20;;;;;;;7.65;5.63;;;7.60;99.90;;;;;;4955946;28;20031;-71
2021/11/04 01:41:47;;;;;;;6.03;5.43;;;7.50;99.90;;;;;;4965922;28;20046;-76
2021/11/04 01:44:13;;;;;;;6.70;4.05;;;7.50;99.90;;;;;;4972242;28;20034;-72
2021/11/04 01:46:39;;;;;;;6.25;4.03;;;7.50;99.90;;;;;;4974098;28;20039;-71
2021/11/04 01:49:06;;;;;;;4.13;3.67;;;7.50;99.90;;;;;;4973709;28;20031;-72
2021/11/04 01:51:32;;;;;;;3.72;3.42;;;7.50;99.90;;;;;;4969250;28;20031;-71
2021/11/04 01:53:58;;;;;;;3.63;3.33;;;7.50;99.90;;;;;;4955897;28;20469;-72
2021/11/04 01:56:25;;;;;;;4.95;3.33;;;7.50;99.90;;;;;;4966194;28;20055;-72
2021/11/04 01:58:52;;;;;;;5.88;3.38;;;7.50;99.90;;;;;;4973820;28;20034;-72
2021/11/04 02:01:18;;;;;;;2.92;2.67;;;7.50;99.90;;;;;;4956958;28;20027;-72
2021/11/04 02:03:56;;;;;;;2.58;2.38;;;7.40;99.90;;;;;;4954821;28;20039;-71
2021/11/04 02:06:36;;;;;;;3.25;3.00;;;7.40;99.90;;;;;;4956528;28;20912;-71
2021/11/04 02:09:10;;;;;;;3.42;3.13;;;7.40;99.90;;;;;;4956234;28;20036;-71
2021/11/04 02:11:50;;;;;;;3.22;2.92;;;7.30;99.90;;;;;;4956364;28;20043;-71
2021/11/04 02:14:21;;;;;;;2.63;2.40;;;7.30;99.90;;;;;;4956331;28;20485;-71
2021/11/04 02:16:49;;;;;;;3.80;2.83;;;7.30;99.90;;;;;;4955679;28;20043;-76
2021/11/04 02:19:41;;;;;;;3.00;2.58;;;7.30;99.90;;;;;;4954800;28;20050;-71
2021/11/04 02:22:32;;;;;;;4.10;3.22;;;7.30;99.90;;;;;;4955901;28;20043;-72
2021/11/04 02:25:13;;;;;;;5.80;2.67;;;7.30;99.90;;;;;;4955098;28;20062;-71
2021/11/04 02:27:44;;;;;;;3.42;3.13;;;7.30;99.90;;;;;;4956366;28;20042;-72
2021/11/04 02:30:11;;;;;;;3.97;2.80;;;7.20;99.90;;;;;;4955273;28;20035;-71
2021/11/04 02:32:38;;;;;;;3.45;3.15;;;7.20;99.90;;;;;;4960068;28;20341;-72
2021/11/04 02:35:06;;;;;;;8.50;3.80;;;7.20;99.90;;;;;;4967091;28;20031;-72
2021/11/04 02:37:33;;;;;;;3.63;3.33;;;7.20;99.90;;;;;;4955094;28;20046;-72
2021/11/04 02:40:00;;;;;;;3.28;2.83;;;7.10;99.90;;;;;;4954982;28;20476;-71
2021/11/04 02:42:27;;;;;;;3.05;2.80;;;7.10;99.90;;;;;;4955895;28;20039;-72
2021/11/04 02:44:54;;;;;;;2.97;1.98;;;7.20;99.90;;;;;;4955414;29;20460;-71
2021/11/04 02:47:21;;;;;;;2.90;1.80;;;7.10;99.90;;;;;;4954083;28;20043;-71
2021/11/04 02:49:48;;;;;;;2.83;1.63;;;7.20;99.90;;;;;;4955377;28;20035;-74
2021/11/04 02:52:16;;;;;;;1.85;1.50;;;7.10;99.90;;;;;;4955288;28;20054;-72
2021/11/04 02:54:53;;;;;;;1.90;1.52;;;7.10;99.90;;;;;;4974626;28;20031;-73
2021/11/04 02:57:20;;;;;;;2.35;1.98;;;7.10;99.90;;;;;;4969918;28;20416;-73
2021/11/04 02:59:48;;;;;;;1.25;1.15;;;7.00;99.90;;;;;;4955611;28;20499;-74
2021/11/04 03:02:14;;;;;;;3.10;1.70;;;7.00;99.90;;;;;;4955591;28;20027;-72
2021/11/04 03:04:41;;;;;;;2.17;1.40;;;7.00;99.90;;;;;;4955257;28;20032;-72
2021/11/04 03:07:07;;;;;;;1.65;1.45;;;7.10;99.90;;;;;;4954558;28;20238;-72
2021/11/04 03:09:33;;;;;;;2.67;1.60;;;7.00;99.90;;;;;;4955252;28;20039;-72
2021/11/04 03:12:01;;;;;;;2.15;1.40;;;7.00;99.90;;;;;;4954731;28;20587;-72
2021/11/04 03:14:27;;;;;;;1.35;1.25;;;7.00;99.90;;;;;;4955215;28;20035;-74
2021/11/04 03:16:55;;;;;;;1.67;1.58;;;7.00;99.90;;;;;;4954870;28;20040;-72
2021/11/04 03:19:23;;;;;;;1.23;1.13;;;7.10;99.90;;;;;;4954743;28;20027;-74
2021/11/04 03:21:51;;;;;;;3.05;1.80;;;7.10;99.90;;;;;;4973003;28;20042;-75
2021/11/04 03:24:19;;;;;;;2.03;1.65;;;7.10;99.90;;;;;;4954908;29;20034;-72
2021/11/04 03:26:55;;;;;;;2.08;1.88;;;7.10;99.90;;;;;;4973500;28;20154;-72
2021/11/04 03:29:24;;;;;;;1.70;1.55;;;7.10;99.90;;;;;;4955062;28;20493;-72
2021/11/04 03:31:52;;;;;;;1.70;1.45;;;7.00;99.90;;;;;;4956531;28;20392;-75
2021/11/04 03:34:19;;;;;;;2.35;2.13;;;7.00;99.90;;;;;;4966871;28;20035;-72
2021/11/04 03:36:49;;;;;;;2.00;1.80;;;7.10;99.90;;;;;;4954970;28;20393;-72
2021/11/04 03:39:19;;;;;;;4.72;2.05;;;7.10;99.90;;;;;;4955088;28;20035;-72
2021/11/04 03:41:51;;;;;;;3.40;2.53;;;7.10;99.90;;;;;;4955514;28;20385;-72
2021/11/04 03:44:19;;;;;;;2.25;1.90;;;7.10;99.90;;;;;;4972322;28;20495;-72
2021/11/04 03:46:47;;;;;;;2.17;1.80;;;7.10;99.90;;;;;;4955519;28;20031;-72
2021/11/04 03:49:17;;;;;;;3.55;2.85;;;7.10;99.90;;;;;;4953214;28;20035;-72
2021/11/04 03:51:46;;;;;;;4.70;3.25;;;7.10;99.90;;;;;;4954541;28;20035;-72
2021/11/04 03:54:12;;;;;;;3.58;3.28;;;7.10;99.90;;;;;;4952744;28;20046;-71
2021/11/04 03:56:40;;;;;;;3.90;3.60;;;7.10;99.90;;;;;;4954375;28;20191;-71
2021/11/04 03:59:06;;;;;;;4.07;3.60;;;7.10;99.90;;;;;;4954510;28;20046;-72
2021/11/04 04:01:33;;;;;;;5.32;4.10;;;7.10;99.90;;;;;;4954535;28;20027;-76
2021/11/04 04:04:04;;;;;;;4.65;4.00;;;7.10;99.90;;;;;;4964547;28;20040;-71
2021/11/04 04:06:36;;;;;;;4.57;4.18;;;7.10;99.90;;;;;;4955180;28;20035;-72
2021/11/04 04:09:08;;;;;;;5.22;4.82;;;7.10;99.90;;;;;;4953950;28;20476;-72
2021/11/04 04:11:35;;;;;;;5.32;4.35;;;7.00;99.90;;;;;;4954093;28;20063;-72
2021/11/04 04:14:01;;;;;;;4.57;4.10;;;7.00;99.90;;;;;;4953658;28;20035;-72
2021/11/04 04:16:27;;;;;;;5.90;4.75;;;7.00;99.90;;;;;;4954183;28;20035;-71
2021/11/04 04:18:53;;;;;;;5.75;4.00;;;6.90;99.90;;;;;;4953044;28;20031;-72
2021/11/04 04:21:20;;;;;;;6.40;4.85;;;6.90;99.90;;;;;;4970923;28;20041;-72
2021/11/04 04:23:46;;;;;;;6.63;5.50;;;6.90;99.90;;;;;;4953926;29;20043;-73
2021/11/04 04:26:13;;;;;;;6.95;6.20;;;6.80;99.90;;;;;;4953867;28;20378;-72
2021/11/04 04:28:39;;;;;;;6.32;5.80;;;6.90;99.90;;;;;;4956465;28;20042;-72
2021/11/04 04:31:05;;;;;;;6.03;5.53;;;6.90;99.90;;;;;;4969976;28;20095;-71
2021/11/04 04:33:31;;;;;;;9.00;7.20;;;6.90;99.90;;;;;;4954096;28;20024;-70
2021/11/04 04:35:58;;;;;;;7.75;5.85;;;6.80;99.90;;;;;;4953426;28;20035;-71
2021/11/04 04:38:24;;;;;;;7.13;6.53;;;6.90;99.90;;;;;;4968353;28;20051;-71
2021/11/04 04:40:52;;;;;;;7.57;6.72;;;6.90;99.90;;;;;;4953729;28;20496;-72
2021/11/04 04:43:18;;;;;;;6.45;5.95;;;6.90;99.90;;;;;;4954041;28;20034;-71
2021/11/04 04:45:44;;;;;;;6.63;6.03;;;6.90;99.90;;;;;;4954208;28;20027;-71
2021/11/04 04:48:11;;;;;;;7.63;6.82;;;6.80;99.90;;;;;;4953416;28;20027;-71
2021/11/04 04:50:39;;;;;;;7.28;6.65;;;6.90;99.90;;;;;;4954056;28;20381;-72
2021/11/04 04:53:06;;;;;;;6.40;5.90;;;6.90;99.90;;;;;;4953372;28;20055;-72
2021/11/04 04:55:32;;;;;;;6.90;6.22;;;6.90;99.90;;;;;;4953655;28;20038;-71
2021/11/04 04:57:59;;;;;;;7.10;6.50;;;6.90;99.90;;;;;;4953068;28;20050;-72
2021/11/04 05:00:25;;;;;;;6.97;6.10;;;6.80;99.90;;;;;;4955924;28;20027;-71
2021/11/04 05:02:51;;;;;;;8.13;6.28;;;6.80;99.90;;;;;;4957215;28;20034;-75
2021/11/04 05:05:18;;;;;;;7.38;6.78;;;6.80;99.90;;;;;;4957461;28;20461;-71
2021/11/04 05:07:44;;;;;;;8.15;7.55;;;6.80;99.90;;;;;;4957482;28;20039;-74
2021/11/04 05:10:12;;;;;;;8.73;6.53;;;6.80;99.90;;;;;;4956779;28;20468;-71
2021/11/04 05:12:39;;;;;;;6.28;5.78;;;6.90;99.90;;;;;;4956936;28;20051;-72
2021/11/04 05:15:06;;;;;;;6.53;5.70;;;6.90;99.90;;;;;;4966746;28;20037;-71
2021/11/04 05:17:34;;;;;;;5.60;5.10;;;6.90;99.90;;;;;;4956841;28;20043;-71
2021/11/04 05:20:03;;;;;;;10.48;5.20;;;7.00;99.90;;;;;;4973690;28;20047;-71
2021/11/04 05:22:29;;;;;;;5.85;5.28;;;6.90;99.90;;;;;;4965653;28;20035;-71
2021/11/04 05:24:55;;;;;;;5.40;4.90;;;6.90;99.90;;;;;;4955284;28;20048;-71
2021/11/04 05:27:21;;;;;;;5.60;5.10;;;6.90;99.90;;;;;;4973507;28;20031;-71
2021/11/04 05:29:48;;;;;;;5.45;4.95;;;6.90;99.90;;;;;;4957111;28;20027;-71
2021/11/04 05:32:16;;;;;;;5.78;5.28;;;7.00;99.90;;;;;;4969849;28;20046;-71
2021/11/04 05:34:43;;;;;;;7.18;5.40;;;7.00;99.90;;;;;;4957151;28;20511;-71
2021/11/04 05:37:09;;;;;;;6.93;6.30;;;7.00;99.90;;;;;;4971750;28;20038;-71
2021/11/04 05:39:36;;;;;;;7.53;6.50;;;7.00;99.90;;;;;;4957147;28;20480;-71
2021/11/04 05:42:07;;;;;;;7.30;6.50;;;7.00;99.90;;;;;;4956469;28;20047;-71
2021/11/04 05:44:35;;;;;;;7.68;6.60;;;7.00;99.90;;;;;;4957016;28;20031;-71
2021/11/04 05:47:05;;;;;;;7.68;6.88;;;7.00;99.90;;;;;;4956130;28;20497;-71
2021/11/04 05:49:32;;;;;;;9.75;8.80;;;7.00;99.90;;;;;;4956989;28;20112;-71
2021/11/04 05:51:58;;;;;;;8.27;7.50;;;7.00;99.90;;;;;;4956041;28;20042;-71
2021/11/04 05:54:24;;;;;;;9.75;8.85;;;7.00;99.90;;;;;;4954761;28;20076;-71
2021/11/04 05:56:51;;;;;;;7.68;7.03;;;6.90;99.90;;;;;;4970414;28;20066;-75
2021/11/04 05:59:17;;;;;;;10.25;8.70;;;7.00;99.90;;;;;;4967483;28;20039;-70
2021/11/04 06:01:43;;;;;;;8.07;7.38;;;7.00;99.90;;;;;;4956471;28;20034;-70
2021/11/04 06:04:10;;;;;;;10.07;8.20;;;6.90;99.90;;;;;;4954414;28;20055;-70
2021/11/04 06:06:36;;;;;;;8.80;8.02;;;6.90;99.90;;;;;;4967808;28;20035;-70
2021/11/04 06:09:02;;;;;;;9.30;8.45;;;7.00;99.90;;;;;;4956417;28;20501;-73
2021/11/04 06:11:28;;;;;;;9.52;8.52;;;7.00;99.90;;;;;;4955380;28;20047;-73
2021/11/04 06:13:55;;;;;;;10.38;9.48;;;7.10;99.90;;;;;;4955846;28;20058;-74
2021/11/04 06:16:21;;;;;;;12.13;9.32;;;7.10;99.90;;;;;;4955786;28;20035;-73
2021/11/04 06:18:48;;;;;;;9.65;8.75;;;7.10;99.90;;;;;;4969131;28;20038;-73
2021/11/04 06:21:16;;;;;;;8.70;7.93;;;7.10;99.90;;;;;;4964298;28;20102;-72
2021/11/04 06:23:42;;;;;;;10.55;8.20;;;7.20;99.90;;;;;;4956649;28;20046;-72
2021/11/04 06:26:08;;;;;;;9.52;8.63;;;7.20;99.90;;;;;;4955370;28;20051;-72
2021/11/04 06:28:35;;;;;;;10.07;9.10;;;7.10;99.90;;;;;;4955960;28;20039;-73
2021/11/04 06:31:02;;;;;;;10.35;7.75;;;7.20;99.90;;;;;;4987530;28;20043;-70
2021/11/04 06:33:28;;;;;;;9.70;8.65;;;7.20;99.90;;;;;;4954677;28;20036;-70
2021/11/04 06:35:54;;;;;;;9.95;9.02;;;7.20;99.90;;;;;;4955480;28;20051;-71
2021/11/04 06:38:21;;;;;;;10.38;9.35;;;7.20;99.90;;;;;;4956161;28;20381;-70
2021/11/04 06:40:49;;;;;;;10.20;9.15;;;7.20;99.90;;;;;;4955270;28;20039;-72
2021/11/04 06:43:15;;;;;;;11.57;9.38;;;7.30;99.90;;;;;;4955514;28;20035;-71
2021/11/04 06:45:48;;;;;;;11.63;10.45;;;7.20;99.90;;;;;;4955756;28;20480;-70
2021/11/04 06:48:21;;;;;;;9.55;8.65;;;7.20;99.90;;;;;;4954876;28;20400;-70
2021/11/04 06:50:49;;;;;;;10.30;9.32;;;7.20;99.90;;;;;;4954385;28;20039;-70
2021/11/04 06:53:20;;;;;;;11.98;10.77;;;7.10;99.90;;;;;;4955574;28;20104;-71
2021/11/04 06:55:49;;;;;;;12.60;11.20;;;7.10;99.90;;;;;;4955108;28;20047;-70
2021/11/04 06:58:17;;;;;;;12.15;10.95;;;7.10;99.90;;;;;;4963582;28;20035;-71
2021/11/04 07:00:46;;;;;;;12.25;11.15;;;7.10;99.90;;;;;;4955736;28;20031;-71
2021/11/04 07:03:24;;;;;;;12.80;11.57;;;7.10;99.90;;;;;;4954729;28;20023;-74
2021/11/04 07:05:57;;;;;;;14.13;12.77;;;7.10;99.90;;;;;;4955663;28;20035;-70
2021/11/04 07:08:24;;;;;;;13.35;12.32;;;7.20;99.90;;;;;;4955386;28;20041;-72
2021/11/04 07:11:01;;;;;;;14.90;13.38;;;7.20;99.90;;;;;;4955284;28;20478;-72
2021/11/04 07:13:29;;;;;;;16.35;14.80;;;7.10;99.90;;;;;;4955428;28;20074;-72
2021/11/04 07:15:57;;;;;;;18.63;16.88;;;7.20;99.90;;;;;;4954668;28;20472;-73
2021/11/04 07:18:24;;;;;;;22.92;19.55;;;7.10;99.90;;;;;;4954657;28;20104;-72
2021/11/04 07:21:02;;;;;;;22.08;19.83;;;7.20;99.90;;;;;;4954652;28;20043;-72
2021/11/04 07:23:40;;;;;;;25.35;22.65;;;7.10;99.90;;;;;;4952501;28;20039;-72
2021/11/04 07:26:08;;;;;;;25.30;22.80;;;7.10;99.90;;;;;;4954427;28;20042;-73
2021/11/04 07:28:39;;;;;;;26.65;23.70;;;7.10;99.90;;;;;;4965409;28;20425;-72
2021/11/04 07:31:12;;;;;;;28.75;25.70;;;7.10;99.90;;;;;;4954576;28;20043;-73
2021/11/04 07:33:44;;;;;;;28.88;25.90;;;7.00;99.90;;;;;;4956566;28;20385;-73
2021/11/04 07:36:14;;;;;;;29.40;26.65;;;7.10;99.90;;;;;;4971991;28;20082;-74
2021/11/04 07:38:43;;;;;;;29.95;26.73;;;7.00;99.90;;;;;;4954282;28;20039;-74
2021/11/04 07:41:10;;;;;;;30.35;27.17;;;7.00;99.90;;;;;;4969742;28;20043;-75
2021/11/04 07:43:37;;;;;;;31.50;28.42;;;7.00;99.90;;;;;;4955407;28;20039;-74
2021/11/04 07:46:03;;;;;;;36.30;30.92;;;7.00;99.90;;;;;;4954314;28;20027;-74
2021/11/04 07:48:30;;;;;;;33.55;30.35;;;7.00;99.90;;;;;;4954932;28;20494;-74
2021/11/04 07:50:57;;;;;;;37.38;33.60;;;7.00;99.90;;;;;;4953946;28;20047;-74
2021/11/04 07:53:24;;;;;;;37.20;33.22;;;7.00;99.90;;;;;;4954797;28;20031;-73
2021/11/04 07:55:52;;;;;;;37.70;33.85;;;7.00;99.90;;;;;;4954486;28;20050;-73
2021/11/04 07:58:18;;;;;;;42.90;35.90;;;6.90;99.90;;;;;;4954248;28;20042;-74
2021/11/04 08:00:44;;;;;;;40.25;36.08;;;7.00;99.90;;;;;;4954559;28;20050;-74
2021/11/04 08:03:11;;;;;;;36.75;33.25;;;7.00;99.90;;;;;;4954256;28;20039;-76
2021/11/04 08:05:37;;;;;;;43.17;38.53;;;7.00;99.90;;;;;;4954862;28;20034;-74
2021/11/04 08:08:05;;;;;;;42.70;38.17;;;6.90;99.90;;;;;;4954413;28;20441;-73
2021/11/04 08:10:31;;;;;;;46.92;42.15;;;6.90;99.90;;;;;;4954455;28;20031;-73
2021/11/04 08:13:03;;;;;;;47.45;41.13;;;6.90;99.90;;;;;;4953594;28;20058;-75
2021/11/04 08:15:29;;;;;;;58.40;44.30;;;6.90;99.90;;;;;;4954847;29;20031;-74
2021/11/04 08:17:56;;;;;;;48.92;43.53;;;7.00;99.90;;;;;;4954074;28;20035;-73
2021/11/04 08:20:22;;;;;;;51.30;43.83;;;6.90;99.90;;;;;;4954295;28;20027;-73
2021/11/04 08:22:48;;;;;;;53.67;42.80;;;6.90;99.90;;;;;;4948593;28;20049;-73
2021/11/04 08:25:14;;;;;;;49.70;44.00;;;6.90;99.90;;;;;;4963725;28;20041;-74
2021/11/04 08:27:41;;;;;;;55.88;42.85;;;6.90;99.90;;;;;;4968784;28;20058;-74
2021/11/04 08:30:14;;;;;;;53.72;44.00;;;6.90;99.90;;;;;;4958004;28;20050;-75
2021/11/04 08:32:41;;;;;;;50.53;41.85;;;6.90;99.90;;;;;;4959365;28;20473;-74
2021/11/04 08:35:08;;;;;;;48.53;42.75;;;6.90;99.90;;;;;;4955596;28;20039;-74
2021/11/04 08:37:35;;;;;;;58.03;43.97;;;6.90;99.90;;;;;;4962685;28;20389;-74
2021/11/04 08:40:02;;;;;;;48.25;42.88;;;6.90;99.90;;;;;;4953767;28;20040;-74
2021/11/04 08:42:29;;;;;;;54.97;45.40;;;6.90;99.90;;;;;;4953935;28;20031;-73
2021/11/04 08:44:55;;;;;;;52.13;44.20;;;6.90;99.90;;;;;;4953741;28;20458;-75
2021/11/04 08:47:21;;;;;;;50.67;45.25;;;6.90;99.90;;;;;;4968006;28;20043;-73
2021/11/04 08:49:48;;;;;;;53.10;44.38;;;6.90;99.90;;;;;;4953782;28;20384;-73
2021/11/04 08:52:14;;;;;;;52.67;47.20;;;6.90;99.90;;;;;;4954021;28;20034;-74
2021/11/04 08:54:41;;;;;;;56.85;46.40;;;6.90;99.90;;;;;;4954561;28;20074;-74
2021/11/04 08:57:08;;;;;;;52.88;44.25;;;6.90;99.90;;;;;;4953498;28;20047;-77
2021/11/04 08:59:35;;;;;;;55.42;45.88;;;6.90;99.90;;;;;;4953782;28;20042;-74
2021/11/04 09:02:01;;;;;;;53.80;47.20;;;6.90;99.90;;;;;;4952819;28;20047;-74
2021/11/04 09:04:28;;;;;;;51.97;46.50;;;7.00;99.90;;;;;;4953729;28;20032;-75
2021/11/04 09:06:54;;;;;;;56.28;45.35;;;7.00;99.90;;;;;;4953970;29;20042;-74
2021/11/04 09:09:21;;;;;;;49.67;43.97;;;7.00;99.90;;;;;;4954195;28;20039;-74
2021/11/04 09:11:47;;;;;;;53.30;45.17;;;7.00;99.90;;;;;;4953772;28;20397;-74
2021/11/04 09:14:13;;;;;;;63.00;49.00;;;7.00;99.90;;;;;;4953357;28;20226;-73
2021/11/04 09:16:43;;;;;;;53.33;46.60;;;7.00;99.90;;;;;;4954063;28;20035;-74
2021/11/04 09:19:09;;;;;;;60.17;47.45;;;7.00;99.90;;;;;;4957413;28;20039;-74
2021/11/04 09:21:35;;;;;;;59.05;48.45;;;7.10;99.90;;;;;;4953602;28;20503;-74
2021/11/04 09:24:02;;;;;;;48.83;43.65;;;7.00;99.90;;;;;;4953664;28;20049;-74
2021/11/04 09:26:29;;;;;;;54.10;44.78;;;7.10;99.90;;;;;;4953722;29;20425;-74
2021/11/04 09:28:55;;;;;;;57.92;47.47;;;7.10;99.90;;;;;;4953245;28;20051;-74
2021/11/04 09:31:22;;;;;;;48.40;43.38;;;7.10;99.90;;;;;;4953927;29;20385;-74
2021/11/04 09:33:48;;;;;;;51.22;45.10;;;7.20;99.90;;;;;;4953274;28;20034;-74
2021/11/04 09:36:14;;;;;;;51.42;41.63;;;7.20;99.90;;;;;;4953632;28;20039;-74
2021/11/04 09:38:40;;;;;;;42.78;38.55;;;7.20;99.90;;;;;;4954046;28;20583;-73
2021/11/04 09:41:07;;;;;;;43.53;37.92;;;7.20;99.90;;;;;;4953299;28;20058;-74
2021/11/04 09:43:33;;;;;;;45.92;34.67;;;7.20;99.90;;;;;;4968157;28;20042;-74
2021/11/04 09:46:01;;;;;;;37.60;31.65;;;7.20;99.90;;;;;;4956330;28;20034;-74
2021/11/04 09:48:29;;;;;;;35.95;32.28;;;7.20;99.90;;;;;;4963504;28;20039;-74
2021/11/04 09:50:56;;;;;;;33.63;29.92;;;7.30;99.90;;;;;;4956918;28;20035;-75
2021/11/04 09:53:22;;;;;;;30.45;27.10;;;7.30;99.90;;;;;;4959177;28;20031;-76
2021/11/04 09:55:48;;;;;;;31.30;27.27;;;7.30;99.90;;;;;;4973570;28;20392;-76
2021/11/04 09:58:15;;;;;;;37.60;26.13;;;7.30;99.90;;;;;;4956825;28;20054;-75
2021/11/04 10:00:41;;;;;;;30.10;26.02;;;7.40;99.90;;;;;;4957344;28;20389;-77
2021/11/04 10:03:10;;;;;;;28.20;25.10;;;7.40;99.90;;;;;;4956858;28;20342;-76
2021/11/04 10:05:44;;;;;;;29.27;22.52;;;7.40;99.90;;;;;;4956906;28;20035;-76
2021/11/04 10:08:13;;;;;;;27.45;22.25;;;7.40;99.90;;;;;;4956564;28;20042;-76
2021/11/04 10:10:39;;;;;;;20.63;18.33;;;7.40;99.90;;;;;;4956344;28;20037;-76
2021/11/04 10:13:08;;;;;;;22.05;19.38;;;7.40;99.90;;;;;;4970539;28;20047;-77
2021/11/04 10:15:38;;;;;;;20.08;18.08;;;7.40;99.90;;;;;;4961487;28;20043;-75
2021/11/04 10:18:20;;;;;;;21.33;19.23;;;7.40;99.90;;;;;;4956161;28;20465;-77
2021/11/04 10:21:00;;;;;;;19.35;17.42;;;7.50;99.90;;;;;;4956746;28;20381;-76
2021/11/04 10:23:34;;;;;;;19.85;17.90;;;7.50;99.90;;;;;;4954933;28;20043;-76
2021/11/04 10:26:16;;;;;;;16.88;15.32;;;7.60;99.90;;;;;;4955897;28;20050;-76
2021/11/04 10:28:45;;;;;;;15.70;14.05;;;7.60;99.90;;;;;;4956424;28;20050;-75
2021/11/04 10:31:16;;;;;;;14.57;13.07;;;7.70;99.90;;;;;;4955786;28;20465;-75
2021/11/04 10:33:48;;;;;;;16.25;14.43;;;7.70;99.90;;;;;;4967395;28;20034;-76
2021/11/04 10:36:18;;;;;;;16.67;14.95;;;7.70;99.90;;;;;;4955803;28;20035;-76
2021/11/04 10:38:52;;;;;;;15.68;13.75;;;7.70;99.90;;;;;;4956824;28;20035;-76
2021/11/04 10:41:22;;;;;;;14.35;12.82;;;7.80;99.90;;;;;;4956189;28;20043;-76
2021/11/04 10:44:03;;;;;;;18.33;12.32;;;7.80;99.90;;;;;;4956219;28;20460;-75
2021/11/04 10:46:30;;;;;;;14.05;12.65;;;7.80;99.90;;;;;;4955930;28;20030;-76
2021/11/04 10:48:59;;;;;;;16.23;10.88;;;7.70;99.90;;;;;;4955919;28;20491;-76
2021/11/04 10:51:26;;;;;;;10.90;9.80;;;7.70;99.90;;;;;;4955807;28;20527;-75
2021/11/04 10:54:04;;;;;;;19.67;10.93;;;7.70;99.90;;;;;;4956147;28;20396;-74
2021/11/04 10:56:32;;;;;;;15.00;10.77;;;7.80;99.90;;;;;;4966279;28;20038;-75
2021/11/04 10:59:03;;;;;;;10.23;9.25;;;7.80;99.90;;;;;;4957830;28;20469;-75
2021/11/04 11:01:37;;;;;;;11.38;10.25;;;7.90;99.90;;;;;;4970185;28;20388;-74
2021/11/04 11:04:18;;;;;;;12.82;9.80;;;7.90;99.90;;;;;;4955684;28;20464;-75
2021/11/04 11:06:50;;;;;;;9.73;8.55;;;8.00;99.90;;;;;;4955721;28;20480;-75
2021/11/04 11:09:17;;;;;;;11.00;9.95;;;8.00;99.90;;;;;;4955252;28;20066;-78
2021/11/04 11:11:49;;;;;;;10.27;9.20;;;8.10;99.90;;;;;;4955573;28;20043;-78
2021/11/04 11:14:17;;;;;;;10.73;9.70;;;8.10;99.90;;;;;;4974239;28;20046;-75
2021/11/04 11:16:51;;;;;;;11.20;9.60;;;8.10;99.90;;;;;;4972358;28;20038;-75
2021/11/04 11:19:31;;;;;;;12.15;9.50;;;8.20;99.90;;;;;;4954852;28;20047;-75
2021/11/04 11:21:59;;;;;;;10.57;8.13;;;8.20;99.90;;;;;;4955200;28;20043;-76
2021/11/04 11:24:29;;;;;;;12.20;9.40;;;8.20;99.90;;;;;;4955375;28;20039;-74
2021/11/04 11:26:57;;;;;;;11.75;10.50;;;8.20;99.90;;;;;;4956049;28;20031;-74
2021/11/04 11:29:24;;;;;;;11.43;10.10;;;8.30;99.90;;;;;;4954782;28;20047;-75
2021/11/04 11:31:55;;;;;;;10.05;9.07;;;8.40;99.90;;;;;;4955417;28;20046;-75
2021/11/04 11:34:26;;;;;;;;;;;8.40;99.90;;;;;;4955732;28;20027;-75
2021/11/04 11:37:15;;;;;;;6.30;5.70;;;8.40;99.90;;;;;;4955118;28;19910;-74
2021/11/04 11:39:53;;;;;;;10.10;8.95;;;8.60;99.90;;;;;;4954845;28;20047;-74
2021/11/04 11:42:25;;;;;;;12.52;8.23;;;8.70;99.90;;;;;;4955088;28;20473;-74
2021/11/04 11:45:02;;;;;;;12.90;9.82;;;8.70;99.90;;;;;;4954701;28;20050;-75
2021/11/04 11:47:28;;;;;;;10.38;9.38;;;8.80;99.90;;;;;;4954546;28;20051;-74
2021/11/04 11:50:16;;;;;;;10.18;9.05;;;8.80;99.90;;;;;;4954931;28;20039;-74
2021/11/04 11:52:51;;;;;;;9.35;8.13;;;8.90;99.90;;;;;;4955198;28;20035;-74
2021/11/04 11:55:32;;;;;;;9.40;8.50;;;8.80;99.90;;;;;;4954746;28;20043;-74
2021/11/04 11:58:17;;;;;;;16.13;10.40;;;8.90;99.90;;;;;;4955238;28;20393;-75
2021/11/04 12:00:49;;;;;;;11.98;9.48;;;8.90;99.90;;;;;;4972865;28;20045;-74
2021/11/04 12:03:37;;;;;;;12.55;8.73;;;8.90;99.90;;;;;;4956804;28;20381;-73
2021/11/04 12:06:03;;;;;;;11.07;9.98;;;8.80;99.90;;;;;;4954320;28;20028;-73
2021/11/04 12:08:29;;;;;;;11.35;9.98;;;8.80;99.90;;;;;;4963518;28;20039;-73
2021/11/04 12:10:56;;;;;;;11.18;10.18;;;8.70;99.90;;;;;;4963921;28;20027;-76
2021/11/04 12:13:38;;;;;;;13.10;10.18;;;8.70;99.50;;;;;;4954840;28;20117;-74
2021/11/04 12:16:23;;;;;;;12.05;9.00;;;8.70;99.70;;;;;;4953636;28;20054;-74
2021/11/04 12:18:58;;;;;;;10.57;8.90;;;8.80;98.80;;;;;;4954346;28;20039;-74
2021/11/04 12:21:37;;;;;;;12.65;7.88;;;8.80;98.60;;;;;;4957490;28;20047;-74
2021/11/04 12:24:08;;;;;;;10.50;9.38;;;8.70;98.30;;;;;;4953913;28;20047;-75
2021/11/04 12:26:42;;;;;;;8.73;7.60;;;8.70;98.60;;;;;;4954239;28;20027;-74
2021/11/04 12:29:12;;;;;;;13.18;8.85;;;8.70;97.90;;;;;;4964359;28;20035;-74
2021/11/04 12:31:41;;;;;;;11.20;8.43;;;8.70;97.90;;;;;;4977033;28;20053;-74
2021/11/04 12:34:18;;;;;;;11.95;10.02;;;8.60;97.80;;;;;;4967574;28;20031;-74
2021/11/04 12:36:45;;;;;;;10.90;8.98;;;8.60;97.80;;;;;;4955897;28;20369;-77
2021/11/04 12:39:25;;;;;;;10.80;9.10;;;8.60;98.10;;;;;;4954029;29;20046;-74
2021/11/04 12:41:57;;;;;;;14.32;8.40;;;8.70;96.80;;;;;;4972814;28;20087;-77
2021/11/04 12:44:29;;;;;;;14.20;8.15;;;8.70;96.50;;;;;;4954205;28;20036;-75
2021/11/04 12:47:00;;;;;;;13.15;10.13;;;8.70;96.70;;;;;;4954293;28;20047;-74
2021/11/04 12:49:31;;;;;;;12.00;10.50;;;8.70;97.00;;;;;;4953872;28;20035;-76
2021/11/04 12:52:08;;;;;;;14.30;9.88;;;8.70;96.90;;;;;;4954284;28;20043;-79
2021/11/04 12:54:44;;;;;;;11.07;9.98;;;8.70;96.70;;;;;;4954603;28;20031;-75